sensor_id;sensor_type;location;lat;lon;timestamp;P1;durP1;ratioP1;P2;durP2;ratioP2
12467;SDS011;57850;52.922;6.256;2022-09-09T00:01:20;13.18;;;11.07;;
12467;SDS011;57850;52.922;6.256;2022-09-09T00:03:57;15.23;;;10.80;;
12467;SDS011;57850;52.922;6.256;2022-09-09T00:06:30;13.88;;;10.77;;
12467;SDS011;57850;52.922;6.256;2022-09-09T00:09:01;13.00;;;10.50;;
12467;SDS011;57850;52.922;6.256;2022-09-09T00:11:34;14.32;;;11.85;;
12467;SDS011;57850;52.922;6.256;2022-09-09T00:14:09;14.77;;;11.48;;
12467;SDS011;57850;52.922;6.256;2022-09-09T00:16:42;14.40;;;11.02;;
12467;SDS011;57850;52.922;6.256;2022-09-09T00:19:17;16.83;;;12.30;;
12467;SDS011;57850;52.922;6.256;2022-09-09T00:21:50;13.82;;;11.85;;
12467;SDS011;57850;52.922;6.256;2022-09-09T00:24:24;13.18;;;11.40;;
12467;SDS011;57850;52.922;6.256;2022-09-09T00:26:56;15.38;;;11.52;;
12467;SDS011;57850;52.922;6.256;2022-09-09T00:29:31;14.38;;;11.88;;
12467;SDS011;57850;52.922;6.256;2022-09-09T00:32:07;16.08;;;11.50;;
12467;SDS011;57850;52.922;6.256;2022-09-09T00:34:38;16.88;;;11.40;;
12467;SDS011;57850;52.922;6.256;2022-09-09T00:37:08;14.45;;;10.63;;
12467;SDS011;57850;52.922;6.256;2022-09-09T00:39:36;14.95;;;10.82;;
12467;SDS011;57850;52.922;6.256;2022-09-09T00:42:10;13.23;;;11.82;;
12467;SDS011;57850;52.922;6.256;2022-09-09T00:44:45;16.83;;;12.13;;
12467;SDS011;57850;52.922;6.256;2022-09-09T00:47:24;17.33;;;12.80;;
12467;SDS011;57850;52.922;6.256;2022-09-09T00:50:08;17.40;;;11.70;;
12467;SDS011;57850;52.922;6.256;2022-09-09T00:52:44;13.43;;;11.20;;
12467;SDS011;57850;52.922;6.256;2022-09-09T00:55:19;13.75;;;11.82;;
12467;SDS011;57850;52.922;6.256;2022-09-09T00:57:53;13.75;;;12.02;;
12467;SDS011;57850;52.922;6.256;2022-09-09T01:00:24;16.75;;;12.40;;
12467;SDS011;57850;52.922;6.256;2022-09-09T01:02:55;17.02;;;12.75;;
12467;SDS011;57850;52.922;6.256;2022-09-09T01:05:43;16.70;;;11.60;;
12467;SDS011;57850;52.922;6.256;2022-09-09T01:08:14;14.65;;;12.02;;
12467;SDS011;57850;52.922;6.256;2022-09-09T01:10:53;12.98;;;11.68;;
12467;SDS011;57850;52.922;6.256;2022-09-09T01:13:23;13.20;;;11.40;;
12467;SDS011;57850;52.922;6.256;2022-09-09T01:15:53;16.60;;;11.43;;
12467;SDS011;57850;52.922;6.256;2022-09-09T01:18:21;12.23;;;10.32;;
12467;SDS011;57850;52.922;6.256;2022-09-09T01:20:54;15.98;;;10.70;;
12467;SDS011;57850;52.922;6.256;2022-09-09T01:23:34;15.40;;;11.52;;
12467;SDS011;57850;52.922;6.256;2022-09-09T01:29:01;14.35;;;11.70;;
12467;SDS011;57850;52.922;6.256;2022-09-09T01:31:28;16.25;;;10.63;;
12467;SDS011;57850;52.922;6.256;2022-09-09T01:33:58;17.73;;;12.02;;
12467;SDS011;57850;52.922;6.256;2022-09-09T01:36:26;15.73;;;12.10;;
12467;SDS011;57850;52.922;6.256;2022-09-09T01:38:58;18.10;;;12.90;;
12467;SDS011;57850;52.922;6.256;2022-09-09T01:41:25;14.27;;;12.05;;
12467;SDS011;57850;52.922;6.256;2022-09-09T01:43:53;15.93;;;12.18;;
12467;SDS011;57850;52.922;6.256;2022-09-09T01:46:22;15.07;;;13.48;;
12467;SDS011;57850;52.922;6.256;2022-09-09T01:48:49;17.67;;;13.10;;
12467;SDS011;57850;52.922;6.256;2022-09-09T01:51:17;19.95;;;13.75;;
12467;SDS011;57850;52.922;6.256;2022-09-09T01:53:43;14.75;;;13.23;;
12467;SDS011;57850;52.922;6.256;2022-09-09T01:56:14;20.27;;;14.18;;
12467;SDS011;57850;52.922;6.256;2022-09-09T01:58:55;19.20;;;14.40;;
12467;SDS011;57850;52.922;6.256;2022-09-09T02:01:35;22.55;;;15.45;;
12467;SDS011;57850;52.922;6.256;2022-09-09T02:04:15;17.75;;;14.00;;
12467;SDS011;57850;52.922;6.256;2022-09-09T02:06:49;20.17;;;14.93;;
12467;SDS011;57850;52.922;6.256;2022-09-09T02:09:23;18.05;;;14.80;;
12467;SDS011;57850;52.922;6.256;2022-09-09T02:11:53;21.73;;;15.52;;
12467;SDS011;57850;52.922;6.256;2022-09-09T02:14:26;20.90;;;14.35;;
12467;SDS011;57850;52.922;6.256;2022-09-09T02:16:56;19.30;;;14.57;;
12467;SDS011;57850;52.922;6.256;2022-09-09T02:19:28;16.80;;;14.68;;
12467;SDS011;57850;52.922;6.256;2022-09-09T02:21:58;17.05;;;13.48;;
12467;SDS011;57850;52.922;6.256;2022-09-09T02:24:26;18.55;;;13.15;;
12467;SDS011;57850;52.922;6.256;2022-09-09T02:26:55;16.98;;;13.77;;
12467;SDS011;57850;52.922;6.256;2022-09-09T02:29:28;16.27;;;13.10;;
12467;SDS011;57850;52.922;6.256;2022-09-09T02:31:58;15.15;;;12.27;;
12467;SDS011;57850;52.922;6.256;2022-09-09T02:34:28;16.95;;;11.77;;
12467;SDS011;57850;52.922;6.256;2022-09-09T02:36:56;15.32;;;11.65;;
12467;SDS011;57850;52.922;6.256;2022-09-09T02:39:25;15.88;;;12.57;;
12467;SDS011;57850;52.922;6.256;2022-09-09T02:41:52;18.75;;;11.80;;
12467;SDS011;57850;52.922;6.256;2022-09-09T02:44:18;14.25;;;11.98;;
12467;SDS011;57850;52.922;6.256;2022-09-09T02:46:51;12.63;;;11.20;;
12467;SDS011;57850;52.922;6.256;2022-09-09T02:49:33;15.20;;;11.50;;
12467;SDS011;57850;52.922;6.256;2022-09-09T02:52:06;14.23;;;10.60;;
12467;SDS011;57850;52.922;6.256;2022-09-09T02:54:34;17.63;;;11.80;;
12467;SDS011;57850;52.922;6.256;2022-09-09T02:57:04;15.70;;;11.52;;
12467;SDS011;57850;52.922;6.256;2022-09-09T02:59:36;13.13;;;10.70;;
12467;SDS011;57850;52.922;6.256;2022-09-09T03:02:04;16.17;;;11.15;;
12467;SDS011;57850;52.922;6.256;2022-09-09T03:04:30;14.38;;;11.02;;
12467;SDS011;57850;52.922;6.256;2022-09-09T03:06:57;14.57;;;11.55;;
12467;SDS011;57850;52.922;6.256;2022-09-09T03:09:25;16.27;;;12.15;;
12467;SDS011;57850;52.922;6.256;2022-09-09T03:11:52;12.27;;;10.98;;
12467;SDS011;57850;52.922;6.256;2022-09-09T03:14:20;15.68;;;11.05;;
12467;SDS011;57850;52.922;6.256;2022-09-09T03:16:49;15.15;;;10.70;;
12467;SDS011;57850;52.922;6.256;2022-09-09T03:19:18;15.63;;;11.68;;
12467;SDS011;57850;52.922;6.256;2022-09-09T03:21:45;19.98;;;11.90;;
12467;SDS011;57850;52.922;6.256;2022-09-09T03:24:12;15.88;;;12.88;;
12467;SDS011;57850;52.922;6.256;2022-09-09T03:26:39;16.65;;;12.55;;
12467;SDS011;57850;52.922;6.256;2022-09-09T03:29:06;12.82;;;11.43;;
12467;SDS011;57850;52.922;6.256;2022-09-09T03:31:33;16.27;;;12.48;;
12467;SDS011;57850;52.922;6.256;2022-09-09T03:34:00;17.30;;;11.13;;
12467;SDS011;57850;52.922;6.256;2022-09-09T03:36:29;14.52;;;11.82;;
12467;SDS011;57850;52.922;6.256;2022-09-09T03:38:56;13.18;;;11.55;;
12467;SDS011;57850;52.922;6.256;2022-09-09T03:41:23;15.30;;;12.20;;
12467;SDS011;57850;52.922;6.256;2022-09-09T03:43:49;18.80;;;12.93;;
12467;SDS011;57850;52.922;6.256;2022-09-09T03:46:17;16.45;;;11.82;;
12467;SDS011;57850;52.922;6.256;2022-09-09T03:48:43;15.85;;;12.45;;
12467;SDS011;57850;52.922;6.256;2022-09-09T03:51:10;17.88;;;12.05;;
12467;SDS011;57850;52.922;6.256;2022-09-09T03:53:38;13.20;;;11.80;;
12467;SDS011;57850;52.922;6.256;2022-09-09T03:56:05;14.50;;;11.82;;
12467;SDS011;57850;52.922;6.256;2022-09-09T03:58:32;18.10;;;12.25;;
12467;SDS011;57850;52.922;6.256;2022-09-09T04:01:00;15.43;;;12.45;;
12467;SDS011;57850;52.922;6.256;2022-09-09T04:03:29;15.35;;;11.68;;
12467;SDS011;57850;52.922;6.256;2022-09-09T04:05:58;15.43;;;11.27;;
12467;SDS011;57850;52.922;6.256;2022-09-09T04:08:27;14.57;;;12.70;;
12467;SDS011;57850;52.922;6.256;2022-09-09T04:10:58;16.95;;;12.43;;
12467;SDS011;57850;52.922;6.256;2022-09-09T04:13:31;16.65;;;12.15;;
12467;SDS011;57850;52.922;6.256;2022-09-09T04:15:59;16.50;;;11.93;;
12467;SDS011;57850;52.922;6.256;2022-09-09T04:18:26;15.90;;;12.10;;
12467;SDS011;57850;52.922;6.256;2022-09-09T04:20:54;13.63;;;10.25;;
12467;SDS011;57850;52.922;6.256;2022-09-09T04:23:22;14.60;;;11.35;;
12467;SDS011;57850;52.922;6.256;2022-09-09T04:25:50;16.17;;;11.88;;
12467;SDS011;57850;52.922;6.256;2022-09-09T04:28:21;12.95;;;11.55;;
12467;SDS011;57850;52.922;6.256;2022-09-09T04:30:50;13.82;;;11.23;;
12467;SDS011;57850;52.922;6.256;2022-09-09T04:33:17;15.73;;;12.02;;
12467;SDS011;57850;52.922;6.256;2022-09-09T04:35:44;16.02;;;11.43;;
12467;SDS011;57850;52.922;6.256;2022-09-09T04:38:12;17.60;;;11.00;;
12467;SDS011;57850;52.922;6.256;2022-09-09T04:40:41;16.63;;;11.25;;
12467;SDS011;57850;52.922;6.256;2022-09-09T04:43:08;14.82;;;11.20;;
12467;SDS011;57850;52.922;6.256;2022-09-09T04:45:36;17.10;;;12.20;;
12467;SDS011;57850;52.922;6.256;2022-09-09T04:48:05;16.95;;;11.80;;
12467;SDS011;57850;52.922;6.256;2022-09-09T04:50:32;16.42;;;11.57;;
12467;SDS011;57850;52.922;6.256;2022-09-09T04:52:59;16.42;;;11.55;;
12467;SDS011;57850;52.922;6.256;2022-09-09T04:55:26;14.70;;;11.43;;
12467;SDS011;57850;52.922;6.256;2022-09-09T04:57:52;15.45;;;12.00;;
12467;SDS011;57850;52.922;6.256;2022-09-09T05:00:19;14.82;;;12.23;;
12467;SDS011;57850;52.922;6.256;2022-09-09T05:02:47;14.57;;;11.43;;
12467;SDS011;57850;52.922;6.256;2022-09-09T05:05:13;17.85;;;13.20;;
12467;SDS011;57850;52.922;6.256;2022-09-09T05:07:41;17.10;;;13.35;;
12467;SDS011;57850;52.922;6.256;2022-09-09T05:10:08;20.52;;;14.60;;
12467;SDS011;57850;52.922;6.256;2022-09-09T05:12:35;19.45;;;13.60;;
12467;SDS011;57850;52.922;6.256;2022-09-09T05:15:02;16.95;;;14.27;;
12467;SDS011;57850;52.922;6.256;2022-09-09T05:17:28;18.95;;;14.20;;
12467;SDS011;57850;52.922;6.256;2022-09-09T05:19:56;17.95;;;13.75;;
12467;SDS011;57850;52.922;6.256;2022-09-09T05:22:23;18.48;;;14.00;;
12467;SDS011;57850;52.922;6.256;2022-09-09T05:24:50;19.85;;;15.75;;
12467;SDS011;57850;52.922;6.256;2022-09-09T05:27:17;19.27;;;14.95;;
12467;SDS011;57850;52.922;6.256;2022-09-09T05:29:44;21.65;;;14.90;;
12467;SDS011;57850;52.922;6.256;2022-09-09T05:32:11;23.08;;;15.88;;
12467;SDS011;57850;52.922;6.256;2022-09-09T05:34:38;19.00;;;15.02;;
12467;SDS011;57850;52.922;6.256;2022-09-09T05:37:06;21.30;;;16.27;;
12467;SDS011;57850;52.922;6.256;2022-09-09T05:39:33;18.60;;;13.63;;
12467;SDS011;57850;52.922;6.256;2022-09-09T05:42:01;18.80;;;14.65;;
12467;SDS011;57850;52.922;6.256;2022-09-09T05:44:27;19.92;;;13.02;;
12467;SDS011;57850;52.922;6.256;2022-09-09T05:46:54;16.70;;;13.05;;
12467;SDS011;57850;52.922;6.256;2022-09-09T05:49:20;18.25;;;13.10;;
12467;SDS011;57850;52.922;6.256;2022-09-09T05:51:48;17.13;;;12.80;;
12467;SDS011;57850;52.922;6.256;2022-09-09T05:54:17;17.35;;;12.68;;
12467;SDS011;57850;52.922;6.256;2022-09-09T05:56:43;15.93;;;12.30;;
12467;SDS011;57850;52.922;6.256;2022-09-09T05:59:10;18.27;;;12.40;;
12467;SDS011;57850;52.922;6.256;2022-09-09T06:01:37;16.73;;;12.10;;
12467;SDS011;57850;52.922;6.256;2022-09-09T06:04:05;17.25;;;12.30;;
12467;SDS011;57850;52.922;6.256;2022-09-09T06:06:33;14.88;;;11.10;;
12467;SDS011;57850;52.922;6.256;2022-09-09T06:09:02;15.13;;;11.38;;
12467;SDS011;57850;52.922;6.256;2022-09-09T06:11:33;13.43;;;11.95;;
12467;SDS011;57850;52.922;6.256;2022-09-09T06:14:01;14.40;;;11.07;;
12467;SDS011;57850;52.922;6.256;2022-09-09T06:16:28;14.07;;;10.93;;
12467;SDS011;57850;52.922;6.256;2022-09-09T06:18:57;12.60;;;10.50;;
12467;SDS011;57850;52.922;6.256;2022-09-09T06:21:25;12.65;;;10.38;;
12467;SDS011;57850;52.922;6.256;2022-09-09T06:23:52;14.48;;;11.45;;
12467;SDS011;57850;52.922;6.256;2022-09-09T06:26:20;12.93;;;10.82;;
12467;SDS011;57850;52.922;6.256;2022-09-09T06:28:51;15.93;;;11.02;;
12467;SDS011;57850;52.922;6.256;2022-09-09T06:31:19;15.38;;;9.88;;
12467;SDS011;57850;52.922;6.256;2022-09-09T06:33:48;13.63;;;10.80;;
12467;SDS011;57850;52.922;6.256;2022-09-09T06:36:17;13.45;;;10.07;;
12467;SDS011;57850;52.922;6.256;2022-09-09T06:38:45;12.40;;;10.85;;
12467;SDS011;57850;52.922;6.256;2022-09-09T06:41:12;16.10;;;10.82;;
12467;SDS011;57850;52.922;6.256;2022-09-09T06:43:40;14.98;;;10.35;;
12467;SDS011;57850;52.922;6.256;2022-09-09T06:46:10;12.40;;;10.23;;
12467;SDS011;57850;52.922;6.256;2022-09-09T06:48:38;11.38;;;10.27;;
12467;SDS011;57850;52.922;6.256;2022-09-09T06:51:06;13.70;;;10.23;;
12467;SDS011;57850;52.922;6.256;2022-09-09T06:53:35;11.32;;;10.15;;
12467;SDS011;57850;52.922;6.256;2022-09-09T06:56:13;15.48;;;10.15;;
12467;SDS011;57850;52.922;6.256;2022-09-09T06:58:45;11.07;;;9.93;;
12467;SDS011;57850;52.922;6.256;2022-09-09T07:01:14;11.93;;;9.27;;
12467;SDS011;57850;52.922;6.256;2022-09-09T07:03:42;10.52;;;9.40;;
12467;SDS011;57850;52.922;6.256;2022-09-09T07:06:12;12.80;;;8.95;;
12467;SDS011;57850;52.922;6.256;2022-09-09T07:08:42;10.50;;;8.75;;
12467;SDS011;57850;52.922;6.256;2022-09-09T07:11:08;10.98;;;9.88;;
12467;SDS011;57850;52.922;6.256;2022-09-09T07:13:36;13.90;;;9.43;;
12467;SDS011;57850;52.922;6.256;2022-09-09T07:16:03;12.10;;;9.38;;
12467;SDS011;57850;52.922;6.256;2022-09-09T07:18:32;10.50;;;9.40;;
12467;SDS011;57850;52.922;6.256;2022-09-09T07:20:59;14.05;;;9.10;;
12467;SDS011;57850;52.922;6.256;2022-09-09T07:23:27;12.02;;;9.25;;
12467;SDS011;57850;52.922;6.256;2022-09-09T07:25:54;11.13;;;9.45;;
12467;SDS011;57850;52.922;6.256;2022-09-09T07:28:21;10.70;;;8.80;;
12467;SDS011;57850;52.922;6.256;2022-09-09T07:30:55;14.57;;;9.23;;
12467;SDS011;57850;52.922;6.256;2022-09-09T07:33:22;11.98;;;8.82;;
12467;SDS011;57850;52.922;6.256;2022-09-09T07:35:50;11.50;;;7.78;;
12467;SDS011;57850;52.922;6.256;2022-09-09T07:38:18;9.63;;;8.60;;
12467;SDS011;57850;52.922;6.256;2022-09-09T07:40:45;11.90;;;8.13;;
12467;SDS011;57850;52.922;6.256;2022-09-09T07:43:12;12.38;;;8.43;;
12467;SDS011;57850;52.922;6.256;2022-09-09T07:45:38;12.18;;;8.27;;
12467;SDS011;57850;52.922;6.256;2022-09-09T07:48:05;12.65;;;8.70;;
12467;SDS011;57850;52.922;6.256;2022-09-09T07:50:32;11.35;;;8.07;;
12467;SDS011;57850;52.922;6.256;2022-09-09T07:53:00;12.77;;;8.02;;
12467;SDS011;57850;52.922;6.256;2022-09-09T07:55:27;9.65;;;7.93;;
12467;SDS011;57850;52.922;6.256;2022-09-09T07:57:54;12.45;;;8.00;;
12467;SDS011;57850;52.922;6.256;2022-09-09T08:00:22;12.77;;;7.55;;
12467;SDS011;57850;52.922;6.256;2022-09-09T08:02:48;11.55;;;8.02;;
12467;SDS011;57850;52.922;6.256;2022-09-09T08:05:15;9.38;;;7.55;;
12467;SDS011;57850;52.922;6.256;2022-09-09T08:07:42;10.43;;;6.75;;
12467;SDS011;57850;52.922;6.256;2022-09-09T08:10:10;11.38;;;6.65;;
12467;SDS011;57850;52.922;6.256;2022-09-09T08:12:39;12.95;;;6.97;;
12467;SDS011;57850;52.922;6.256;2022-09-09T08:15:06;9.35;;;7.03;;
12467;SDS011;57850;52.922;6.256;2022-09-09T08:17:33;10.30;;;6.28;;
12467;SDS011;57850;52.922;6.256;2022-09-09T08:19:59;8.13;;;6.53;;
12467;SDS011;57850;52.922;6.256;2022-09-09T08:22:30;12.25;;;6.90;;
12467;SDS011;57850;52.922;6.256;2022-09-09T08:24:56;12.38;;;6.20;;
12467;SDS011;57850;52.922;6.256;2022-09-09T08:27:24;10.73;;;5.75;;
12467;SDS011;57850;52.922;6.256;2022-09-09T08:29:51;9.18;;;5.88;;
12467;SDS011;57850;52.922;6.256;2022-09-09T08:32:18;9.52;;;6.07;;
12467;SDS011;57850;52.922;6.256;2022-09-09T08:34:45;12.80;;;5.80;;
12467;SDS011;57850;52.922;6.256;2022-09-09T08:37:11;13.63;;;6.00;;
12467;SDS011;57850;52.922;6.256;2022-09-09T08:39:38;8.30;;;4.70;;
12467;SDS011;57850;52.922;6.256;2022-09-09T08:42:08;9.55;;;5.22;;
12467;SDS011;57850;52.922;6.256;2022-09-09T08:44:53;11.32;;;5.10;;
12467;SDS011;57850;52.922;6.256;2022-09-09T08:47:28;7.90;;;5.10;;
12467;SDS011;57850;52.922;6.256;2022-09-09T08:50:05;11.35;;;4.90;;
12467;SDS011;57850;52.922;6.256;2022-09-09T08:52:51;9.07;;;4.43;;
12467;SDS011;57850;52.922;6.256;2022-09-09T08:55:25;9.93;;;4.72;;
12467;SDS011;57850;52.922;6.256;2022-09-09T08:57:56;8.50;;;5.10;;
12467;SDS011;57850;52.922;6.256;2022-09-09T09:00:30;10.88;;;5.00;;
12467;SDS011;57850;52.922;6.256;2022-09-09T09:03:05;10.75;;;5.10;;
12467;SDS011;57850;52.922;6.256;2022-09-09T09:05:41;8.45;;;5.00;;
12467;SDS011;57850;52.922;6.256;2022-09-09T09:08:16;9.55;;;4.35;;
12467;SDS011;57850;52.922;6.256;2022-09-09T09:10:48;11.00;;;5.65;;
12467;SDS011;57850;52.922;6.256;2022-09-09T09:13:17;8.07;;;4.78;;
12467;SDS011;57850;52.922;6.256;2022-09-09T09:15:50;18.45;;;4.80;;
12467;SDS011;57850;52.922;6.256;2022-09-09T09:18:22;9.40;;;4.55;;
12467;SDS011;57850;52.922;6.256;2022-09-09T09:20:54;10.85;;;4.57;;
12467;SDS011;57850;52.922;6.256;2022-09-09T09:23:25;11.00;;;4.72;;
12467;SDS011;57850;52.922;6.256;2022-09-09T09:26:05;8.18;;;4.70;;
12467;SDS011;57850;52.922;6.256;2022-09-09T09:28:35;9.38;;;4.57;;
12467;SDS011;57850;52.922;6.256;2022-09-09T09:31:05;12.93;;;4.45;;
12467;SDS011;57850;52.922;6.256;2022-09-09T09:33:34;8.27;;;4.07;;
12467;SDS011;57850;52.922;6.256;2022-09-09T09:36:06;10.93;;;4.03;;
12467;SDS011;57850;52.922;6.256;2022-09-09T09:38:34;6.63;;;3.58;;
12467;SDS011;57850;52.922;6.256;2022-09-09T09:41:02;8.85;;;3.83;;
12467;SDS011;57850;52.922;6.256;2022-09-09T09:43:29;10.10;;;3.70;;
12467;SDS011;57850;52.922;6.256;2022-09-09T09:45:57;7.28;;;2.88;;
12467;SDS011;57850;52.922;6.256;2022-09-09T09:48:25;6.50;;;3.20;;
12467;SDS011;57850;52.922;6.256;2022-09-09T09:50:54;6.88;;;3.17;;
12467;SDS011;57850;52.922;6.256;2022-09-09T09:53:23;10.45;;;3.67;;
12467;SDS011;57850;52.922;6.256;2022-09-09T09:55:54;6.03;;;3.08;;
12467;SDS011;57850;52.922;6.256;2022-09-09T09:58:22;9.07;;;3.30;;
12467;SDS011;57850;52.922;6.256;2022-09-09T10:00:51;8.93;;;2.65;;
12467;SDS011;57850;52.922;6.256;2022-09-09T10:03:27;8.45;;;3.00;;
12467;SDS011;57850;52.922;6.256;2022-09-09T10:05:55;9.68;;;3.55;;
12467;SDS011;57850;52.922;6.256;2022-09-09T10:08:23;6.20;;;3.30;;
12467;SDS011;57850;52.922;6.256;2022-09-09T10:10:55;9.25;;;2.75;;
12467;SDS011;57850;52.922;6.256;2022-09-09T10:13:33;6.97;;;3.13;;
12467;SDS011;57850;52.922;6.256;2022-09-09T10:16:13;8.45;;;3.05;;
12467;SDS011;57850;52.922;6.256;2022-09-09T10:18:55;8.48;;;2.80;;
12467;SDS011;57850;52.922;6.256;2022-09-09T10:21:29;5.57;;;2.45;;
12467;SDS011;57850;52.922;6.256;2022-09-09T10:27:11;7.72;;;2.80;;
12467;SDS011;57850;52.922;6.256;2022-09-09T10:30:00;6.15;;;2.80;;
12467;SDS011;57850;52.922;6.256;2022-09-09T10:32:36;6.55;;;2.75;;
12467;SDS011;57850;52.922;6.256;2022-09-09T10:35:12;7.70;;;2.55;;
12467;SDS011;57850;52.922;6.256;2022-09-09T10:37:55;6.22;;;2.42;;
12467;SDS011;57850;52.922;6.256;2022-09-09T10:40:48;6.93;;;2.67;;
12467;SDS011;57850;52.922;6.256;2022-09-09T10:43:36;8.38;;;3.08;;
12467;SDS011;57850;52.922;6.256;2022-09-09T10:46:15;11.30;;;3.30;;
12467;SDS011;57850;52.922;6.256;2022-09-09T10:48:54;7.85;;;2.67;;
12467;SDS011;57850;52.922;6.256;2022-09-09T10:51:38;6.78;;;2.60;;
12467;SDS011;57850;52.922;6.256;2022-09-09T10:54:17;8.65;;;2.75;;
12467;SDS011;57850;52.922;6.256;2022-09-09T10:56:58;9.07;;;2.95;;
12467;SDS011;57850;52.922;6.256;2022-09-09T10:59:30;6.05;;;2.22;;
12467;SDS011;57850;52.922;6.256;2022-09-09T11:02:02;6.10;;;3.08;;
12467;SDS011;57850;52.922;6.256;2022-09-09T11:04:39;9.02;;;3.20;;
12467;SDS011;57850;52.922;6.256;2022-09-09T11:07:12;8.15;;;2.95;;
12467;SDS011;57850;52.922;6.256;2022-09-09T11:09:45;6.53;;;3.00;;
12467;SDS011;57850;52.922;6.256;2022-09-09T11:12:17;6.22;;;3.00;;
12467;SDS011;57850;52.922;6.256;2022-09-09T11:14:45;8.38;;;3.08;;
12467;SDS011;57850;52.922;6.256;2022-09-09T11:17:16;6.70;;;3.28;;
12467;SDS011;57850;52.922;6.256;2022-09-09T11:19:48;7.25;;;3.10;;
12467;SDS011;57850;52.922;6.256;2022-09-09T11:22:18;6.78;;;3.05;;
12467;SDS011;57850;52.922;6.256;2022-09-09T11:24:54;10.02;;;2.80;;
12467;SDS011;57850;52.922;6.256;2022-09-09T11:27:26;8.30;;;2.83;;
12467;SDS011;57850;52.922;6.256;2022-09-09T11:30:02;12.52;;;3.20;;
12467;SDS011;57850;52.922;6.256;2022-09-09T11:35:37;7.13;;;2.72;;
12467;SDS011;57850;52.922;6.256;2022-09-09T11:38:18;7.57;;;2.75;;
12467;SDS011;57850;52.922;6.256;2022-09-09T11:40:53;5.97;;;2.70;;
12467;SDS011;57850;52.922;6.256;2022-09-09T11:43:29;8.35;;;2.70;;
12467;SDS011;57850;52.922;6.256;2022-09-09T11:46:00;7.90;;;2.88;;
12467;SDS011;57850;52.922;6.256;2022-09-09T11:48:30;8.25;;;3.33;;
12467;SDS011;57850;52.922;6.256;2022-09-09T11:51:00;5.22;;;2.63;;
12467;SDS011;57850;52.922;6.256;2022-09-09T11:53:31;8.93;;;3.10;;
12467;SDS011;57850;52.922;6.256;2022-09-09T11:56:10;7.70;;;2.70;;
12467;SDS011;57850;52.922;6.256;2022-09-09T11:58:40;6.85;;;2.90;;
12467;SDS011;57850;52.922;6.256;2022-09-09T12:01:13;6.45;;;2.70;;
12467;SDS011;57850;52.922;6.256;2022-09-09T12:03:41;7.50;;;2.67;;
12467;SDS011;57850;52.922;6.256;2022-09-09T12:06:13;8.50;;;2.65;;
12467;SDS011;57850;52.922;6.256;2022-09-09T12:08:48;5.05;;;2.53;;
12467;SDS011;57850;52.922;6.256;2022-09-09T12:11:25;6.07;;;2.47;;
12467;SDS011;57850;52.922;6.256;2022-09-09T12:13:53;8.10;;;2.45;;
12467;SDS011;57850;52.922;6.256;2022-09-09T12:16:28;5.32;;;2.58;;
12467;SDS011;57850;52.922;6.256;2022-09-09T12:19:02;7.50;;;2.70;;
12467;SDS011;57850;52.922;6.256;2022-09-09T12:21:33;8.77;;;2.35;;
12467;SDS011;57850;52.922;6.256;2022-09-09T12:24:07;5.50;;;2.15;;
12467;SDS011;57850;52.922;6.256;2022-09-09T12:26:36;6.65;;;2.47;;
12467;SDS011;57850;52.922;6.256;2022-09-09T12:29:12;3.85;;;2.15;;
12467;SDS011;57850;52.922;6.256;2022-09-09T12:31:51;7.10;;;2.38;;
12467;SDS011;57850;52.922;6.256;2022-09-09T12:34:26;7.22;;;2.40;;
12467;SDS011;57850;52.922;6.256;2022-09-09T12:37:02;6.30;;;2.35;;
12467;SDS011;57850;52.922;6.256;2022-09-09T12:39:36;5.15;;;2.25;;
12467;SDS011;57850;52.922;6.256;2022-09-09T12:42:14;9.43;;;2.42;;
12467;SDS011;57850;52.922;6.256;2022-09-09T12:44:50;11.25;;;2.80;;
12467;SDS011;57850;52.922;6.256;2022-09-09T12:47:18;6.93;;;2.70;;
12467;SDS011;57850;52.922;6.256;2022-09-09T12:49:48;4.97;;;2.50;;
12467;SDS011;57850;52.922;6.256;2022-09-09T12:52:18;7.15;;;2.70;;
12467;SDS011;57850;52.922;6.256;2022-09-09T12:54:52;4.78;;;2.20;;
12467;SDS011;57850;52.922;6.256;2022-09-09T12:57:19;4.32;;;2.15;;
12467;SDS011;57850;52.922;6.256;2022-09-09T12:59:49;4.40;;;2.08;;
12467;SDS011;57850;52.922;6.256;2022-09-09T13:02:20;6.30;;;2.28;;
12467;SDS011;57850;52.922;6.256;2022-09-09T13:04:52;4.68;;;1.95;;
12467;SDS011;57850;52.922;6.256;2022-09-09T13:07:21;7.03;;;2.40;;
12467;SDS011;57850;52.922;6.256;2022-09-09T13:09:52;4.40;;;1.90;;
12467;SDS011;57850;52.922;6.256;2022-09-09T13:12:19;3.08;;;1.90;;
12467;SDS011;57850;52.922;6.256;2022-09-09T13:14:49;6.28;;;1.90;;
12467;SDS011;57850;52.922;6.256;2022-09-09T13:17:19;3.45;;;1.92;;
12467;SDS011;57850;52.922;6.256;2022-09-09T13:19:48;5.10;;;1.98;;
12467;SDS011;57850;52.922;6.256;2022-09-09T13:22:20;3.58;;;1.95;;
12467;SDS011;57850;52.922;6.256;2022-09-09T13:24:59;7.72;;;2.60;;
12467;SDS011;57850;52.922;6.256;2022-09-09T13:27:29;6.43;;;2.63;;
12467;SDS011;57850;52.922;6.256;2022-09-09T13:29:59;7.13;;;2.67;;
12467;SDS011;57850;52.922;6.256;2022-09-09T13:32:26;7.25;;;2.95;;
12467;SDS011;57850;52.922;6.256;2022-09-09T13:34:54;7.00;;;2.72;;
12467;SDS011;57850;52.922;6.256;2022-09-09T13:37:26;5.82;;;2.60;;
12467;SDS011;57850;52.922;6.256;2022-09-09T13:39:57;5.07;;;2.67;;
12467;SDS011;57850;52.922;6.256;2022-09-09T13:42:25;5.28;;;2.13;;
12467;SDS011;57850;52.922;6.256;2022-09-09T13:44:54;6.22;;;2.70;;
12467;SDS011;57850;52.922;6.256;2022-09-09T13:47:26;7.18;;;2.92;;
12467;SDS011;57850;52.922;6.256;2022-09-09T13:49:56;6.55;;;3.00;;
12467;SDS011;57850;52.922;6.256;2022-09-09T13:52:22;5.10;;;2.80;;
12467;SDS011;57850;52.922;6.256;2022-09-09T13:54:51;2.75;;;1.95;;
12467;SDS011;57850;52.922;6.256;2022-09-09T13:57:21;2.95;;;1.73;;
12467;SDS011;57850;52.922;6.256;2022-09-09T13:59:50;2.63;;;1.60;;
12467;SDS011;57850;52.922;6.256;2022-09-09T14:02:19;3.55;;;1.95;;
12467;SDS011;57850;52.922;6.256;2022-09-09T14:04:48;3.47;;;1.80;;
12467;SDS011;57850;52.922;6.256;2022-09-09T14:07:16;4.65;;;2.03;;
12467;SDS011;57850;52.922;6.256;2022-09-09T14:09:44;4.45;;;2.08;;
12467;SDS011;57850;52.922;6.256;2022-09-09T14:12:14;4.68;;;2.30;;
12467;SDS011;57850;52.922;6.256;2022-09-09T14:14:43;5.32;;;2.17;;
12467;SDS011;57850;52.922;6.256;2022-09-09T14:17:09;2.95;;;1.92;;
12467;SDS011;57850;52.922;6.256;2022-09-09T14:19:36;6.47;;;2.20;;
12467;SDS011;57850;52.922;6.256;2022-09-09T14:22:03;4.55;;;2.30;;
12467;SDS011;57850;52.922;6.256;2022-09-09T14:24:29;6.88;;;2.67;;
12467;SDS011;57850;52.922;6.256;2022-09-09T14:26:56;3.10;;;2.33;;
12467;SDS011;57850;52.922;6.256;2022-09-09T14:29:22;7.13;;;2.33;;
12467;SDS011;57850;52.922;6.256;2022-09-09T14:31:52;8.85;;;3.05;;
12467;SDS011;57850;52.922;6.256;2022-09-09T14:34:18;5.25;;;2.30;;
12467;SDS011;57850;52.922;6.256;2022-09-09T14:36:45;3.67;;;2.20;;
12467;SDS011;57850;52.922;6.256;2022-09-09T14:39:11;8.00;;;2.15;;
12467;SDS011;57850;52.922;6.256;2022-09-09T14:41:38;3.55;;;2.05;;
12467;SDS011;57850;52.922;6.256;2022-09-09T14:44:04;3.67;;;2.13;;
12467;SDS011;57850;52.922;6.256;2022-09-09T14:46:31;6.28;;;2.53;;
12467;SDS011;57850;52.922;6.256;2022-09-09T14:48:59;3.83;;;2.00;;
12467;SDS011;57850;52.922;6.256;2022-09-09T14:51:26;5.25;;;1.88;;
12467;SDS011;57850;52.922;6.256;2022-09-09T14:53:53;3.30;;;1.90;;
12467;SDS011;57850;52.922;6.256;2022-09-09T14:56:23;3.65;;;1.63;;
12467;SDS011;57850;52.922;6.256;2022-09-09T14:58:52;4.40;;;1.90;;
12467;SDS011;57850;52.922;6.256;2022-09-09T15:01:20;3.28;;;2.05;;